Latest Weather Observations for Gelantipy

IDV60801

Issued at 6:05 pm EDT Tuesday 21 October 2014 (issued every 30 minutes, with the page automatically refreshed every 10 minutes)

About weather observations | Map of weather stations | Latest weather observations for VIC | Other Formats
Station Details ID: 084142 Name: GELANTIPY Lat: -37.22 Lon: 148.26 Height: 755.0 m
Data from the previous 72 hours. | See also: Recent months at Gelantipy
Date/Time
EDT
Temp
°C
App
Temp
°C
Dew
Point
Rel
Hum
%
Delta-T
°C
Wind Press
QNH
hPa
Press
MSL
hPa
Rain
since 9 am
mm
Dir
 
Spd
km/h
Gust
km/h
Spd
kts
Gust
kts
21/06:00pm 18.3 16.6 9.9 58 4.6 NNE 9 13 5 7 1025.7 1025.1 0.0
21/05:30pm 18.6 16.9 9.7 56 4.9 NE 9 13 5 7 1025.9 1025.3 0.0
21/05:00pm 18.6 16.9 9.9 57 4.8 NE 9 13 5 7 1025.9 1025.3 0.0
21/04:30pm 18.5 16.7 9.6 56 4.9 NNE 9 13 5 7 1026.1 1025.6 0.0
21/04:00pm 18.4 16.4 10.0 58 4.6 NNE 11 19 6 10 1026.2 1025.7 0.0
21/03:30pm 18.2 16.0 10.8 62 4.1 NNE 13 17 7 9 1026.4 1025.9 0.0
21/03:00pm 17.7 15.0 10.3 62 4.1 NNE 15 19 8 10 1026.8 1026.3 0.0
21/02:30pm 17.2 13.8 10.6 65 3.7 N 19 24 10 13 1027.2 1026.7 0.0
21/02:00pm 16.7 13.1 9.9 64 3.7 NNE 19 26 10 14 1027.6 1027.1 0.0
21/01:30pm 16.0 12.2 9.9 67 3.3 NNE 20 30 11 16 1027.9 1027.4 0.0
21/01:00pm 15.5 11.4 10.1 70 2.9 NNE 22 26 12 14 1028.4 1027.9 0.0
21/12:30pm 15.0 10.5 10.0 72 2.7 NNE 24 30 13 16 1028.7 1028.2 0.0
21/12:00pm 14.2 9.4 8.8 70 2.8 NNE 24 35 13 19 1028.9 1028.4 0.0
21/11:30am 13.5 8.2 8.6 72 2.6 NNE 26 35 14 19 1029.1 1028.6 0.0
21/11:00am 13.0 7.2 8.1 72 2.5 NNE 28 39 15 21 1029.2 1028.7 0.0
21/10:30am 12.8 7.6 8.9 77 2.0 NNE 26 35 14 19 1029.4 1029.0 0.0
21/10:00am 11.9 5.7 7.8 76 2.1 NNE 30 39 16 21 1029.3 1028.8 0.0
21/09:30am 11.5 5.6 7.4 76 2.1 NNE 28 37 15 20 1029.3 1028.8 0.0
21/09:00am 10.7 4.4 7.2 79 1.7 NNE 30 41 16 22 1029.0 1028.5 0.2
21/08:30am 10.1 3.7 7.0 81 1.5 NNE 30 41 16 22 1028.9 1028.4 0.2
21/08:00am 9.2 2.1 6.3 82 1.4 NNE 33 43 18 23 1028.7 1028.2 0.2
21/07:30am 8.6 1.6 6.1 84 1.2 NNE 32 39 17 21 1028.4 1027.9 0.2
21/07:00am 7.8 1.5 5.6 86 1.0 NNE 28 37 15 20 1028.2 1027.8 0.2
21/06:30am 7.1 0.4 5.4 89 0.8 NNE 30 37 16 20 1028.0 1027.5 0.2
21/06:00am 6.9 0.5 5.4 90 0.7 NNE 28 35 15 19 1027.8 1027.3 0.2
21/05:30am 7.0 0.7 5.5 90 0.7 NNE 28 37 15 20 1027.7 1027.2 0.2
21/05:00am 6.9 1.3 5.4 90 0.7 NNE 24 35 13 19 1027.8 1027.3 0.2
21/04:30am 6.8 1.2 5.4 91 0.6 NNE 24 32 13 17 1027.9 1027.4 0.2
21/04:00am 6.8 1.6 5.4 91 0.6 NNE 22 32 12 17 1028.1 1027.6 0.2
21/03:30am 7.1 1.5 5.4 89 0.8 NNE 24 32 13 17 1028.2 1027.8 0.2
21/03:00am 7.2 1.6 5.5 89 0.8 NNE 24 33 13 18 1028.7 1028.2 0.2
21/02:30am 7.4 1.8 5.5 88 0.9 NNE 24 37 13 20 1028.7 1028.2 0.2
21/02:00am 7.3 2.5 5.4 88 0.9 NNE 20 33 11 18 1029.1 1028.6 0.2
21/01:30am 7.5 1.9 5.5 87 0.9 NE 24 32 13 17 1029.4 1029.0 0.2
21/01:00am 7.9 2.7 5.7 86 1.0 NE 22 33 12 18 1029.6 1029.2 0.2
21/12:30am 7.9 2.7 5.7 86 1.0 NNE 22 32 12 17 1029.9 1029.4 0.2
21/12:00am 8.1 3.9 5.9 86 1.0 NE 17 28 9 15 1030.2 1029.7 0.2
 
Date/Time
EDT
Temp
°C
App
Temp
°C
Dew
Point
Rel
Hum
%
Delta-T
°C
Wind Press
QNH
hPa
Press
MSL
hPa
Rain
since 9 am
mm
Dir
 
Spd
km/h
Gust
km/h
Spd
kts
Gust
kts
20/11:30pm 8.5 4.4 6.0 84 1.2 NE 17 24 9 13 1030.2 1029.7 0.2
20/11:00pm 8.6 4.1 6.2 85 1.1 NE 19 28 10 15 1030.1 1029.6 0.2
20/10:30pm 8.8 4.4 6.4 85 1.2 NE 19 26 10 14 1030.1 1029.6 0.2
20/10:00pm 8.6 7.9 7.1 90 0.7 CALM 0 0 0 0 1030.2 1029.7 0.2
20/09:30pm 8.7 8.0 7.0 89 0.8 CALM 0 0 0 0 1030.3 1029.8 0.2
20/09:00pm 8.7 7.2 7.0 89 0.8 SW 4 7 2 4 1030.3 1029.8 0.2
20/08:30pm 8.8 7.0 7.3 90 0.7 SW 6 9 3 5 1030.0 1029.5 0.2
20/08:00pm 9.3 7.3 7.1 86 1.1 SSW 7 9 4 5 1029.6 1029.2 0.2
20/07:30pm 9.5 7.1 7.1 85 1.2 S 9 13 5 7 1029.5 1029.1 0.2
20/07:00pm 10.2 8.2 7.3 82 1.4 S 7 13 4 7 1029.2 1028.7 0.2
20/06:30pm 11.2 9.0 7.9 80 1.7 S 9 15 5 8 1029.0 1028.5 0.2
20/06:00pm 12.0 9.9 8.3 78 1.9 SSW 9 15 5 8 1028.9 1028.4 0.2
20/05:30pm 13.2 10.8 8.7 74 2.4 S 11 17 6 9 1028.8 1028.3 0.2
20/05:00pm 14.8 13.1 8.3 65 3.4 NNW 7 13 4 7 1028.7 1028.2 0.2
20/04:30pm 14.3 11.9 7.1 62 3.7 NNW 9 15 5 8 1028.6 1028.1 0.2
20/04:00pm 14.2 11.8 6.8 61 3.7 NW 9 17 5 9 1028.7 1028.2 0.2
20/03:30pm 12.9 10.8 6.5 65 3.2 ENE 7 13 4 7 1028.9 1028.4 0.2
20/03:00pm 13.1 10.0 7.1 67 3.0 NNE 13 17 7 9 1029.2 1028.7 0.2
20/02:30pm 12.7 9.0 6.3 65 3.2 NE 15 20 8 11 1029.4 1029.0 0.2
20/02:00pm 12.1 8.3 7.6 74 2.3 N 17 24 9 13 1029.9 1029.4 0.2
20/01:30pm 11.1 7.4 6.3 72 2.4 N 15 22 8 12 1030.2 1029.7 0.2
20/01:00pm 10.5 7.6 6.3 75 2.0 NE 11 15 6 8 1030.5 1030.1 0.2
20/12:30pm 10.4 7.6 5.2 70 2.5 E 9 13 5 7 1030.7 1030.3 0.2
20/12:00pm 9.5 6.0 5.5 76 1.9 E 13 20 7 11 1031.0 1030.6 0.2
20/11:30am 8.3 4.0 5.4 82 1.4 E 17 20 9 11 1031.4 1030.9 0.2
20/11:00am 8.8 5.4 6.1 83 1.3 SE 13 19 7 10 1031.4 1030.9 0.2
20/10:30am 8.0 5.2 6.8 92 0.6 ESE 11 17 6 9 1031.5 1031.0 0.2
20/10:00am 6.8 3.8 6.2 96 0.3 SE 11 17 6 9 1031.3 1030.8 0.2
20/09:30am 6.7 4.5 6.0 95 0.3 S 7 11 4 6 1030.8 1030.4 0.0
20/09:00am 6.5 4.5 6.2 98 0.1 S 6 9 3 5 1030.6 1030.2 1.8
20/08:30am 5.8 3.1 5.5 98 0.1 S 9 13 5 7 1030.2 1029.7 1.8
20/08:00am 5.7 3.3 5.3 97 0.2 S 7 11 4 6 1030.1 1029.6 1.8
20/07:30am 5.5 2.3 5.1 97 0.2 SSE 11 15 6 8 1029.6 1029.2 1.6
20/07:00am 5.9 3.2 5.6 98 0.1 SSW 9 13 5 7 1029.4 1029.0 1.4
20/06:30am 5.8 3.1 5.5 98 0.1 SSW 9 15 5 8 1029.2 1028.7 1.4
20/06:00am 5.9 3.2 5.8 99 0.0 SSW 9 15 5 8 1028.9 1028.4 1.4
20/05:30am 6.0 3.0 6.0 100 0.0 S 11 17 6 9 1028.7 1028.2 1.4
20/05:00am 6.0 1.9 6.0 100 0.0 SSW 17 24 9 13 1028.4 1027.9 1.4
20/04:30am 6.1 2.7 6.1 100 0.0 S 13 19 7 10 1028.2 1027.8 1.4
20/04:00am 6.1 2.4 6.1 100 0.0 S 15 26 8 14 1028.1 1027.6 1.4
20/03:30am 6.5 2.5 6.5 100 0.0 S 17 30 9 16 1028.1 1027.6 1.2
20/03:00am 7.3 3.1 7.3 100 0.0 SSW 19 28 10 15 1027.7 1027.2 1.2
20/02:30am 8.2 4.9 8.2 100 0.0 SSW 15 24 8 13 1027.4 1026.9 1.0
20/02:00am 8.2 5.3 8.2 100 0.0 S 13 22 7 12 1027.2 1026.7 0.8
20/01:30am 8.5 5.7 8.5 100 0.0 S 13 24 7 13 1027.1 1026.6 0.4
20/01:00am 9.3 6.3 9.3 100 0.0 SSW 15 22 8 12 1027.0 1026.4 0.2
20/12:30am 9.5 6.6 9.5 100 0.0 SSW 15 24 8 13 1026.7 1026.2 0.0
20/12:00am 9.9 7.8 9.9 100 0.0 SSW 11 24 6 13 1026.4 1025.9 0.0
 
Date/Time
EDT
Temp
°C
App
Temp
°C
Dew
Point
Rel
Hum
%
Delta-T
°C
Wind Press
QNH
hPa
Press
MSL
hPa
Rain
since 9 am
mm
Dir
 
Spd
km/h
Gust
km/h
Spd
kts
Gust
kts
19/11:30pm 10.1 8.4 9.9 99 0.1 SSW 9 17 5 9 1026.1 1025.6 0.0
19/11:00pm 10.2 8.1 9.9 98 0.2 SSW 11 20 6 11 1026.1 1025.6 0.0
19/10:30pm 10.3 7.8 9.8 97 0.3 SSW 13 20 7 11 1025.8 1025.2 0.0
19/10:00pm 11.3 8.8 9.6 89 0.9 SSW 13 20 7 11 1025.2 1024.7 0.0
19/09:30pm 16.1 13.1 7.6 57 4.4 SSW 13 22 7 12 1024.3 1023.7 0.0
19/09:00pm 19.0 13.9 3.2 35 7.7 W 19 32 10 17 1023.2 1022.6 0.0
19/08:30pm 18.9 12.8 2.7 34 7.8 WNW 24 35 13 19 1023.0 1022.4 0.0
19/08:00pm 19.2 13.0 2.1 32 8.1 WNW 24 35 13 19 1023.0 1022.4 0.0
19/07:30pm 18.9 13.9 1.4 31 8.2 NNW 17 24 9 13 1022.9 1022.3 0.0
19/07:00pm 19.0 15.1 3.2 35 7.7 NNW 13 19 7 10 1022.8 1022.2 0.0
19/06:30pm 18.8 16.5 7.3 47 6.1 WSW 9 13 5 7 1022.4 1021.8 0.0
19/06:00pm 19.1 16.9 7.8 48 6.0 WNW 9 11 5 6 1021.9 1021.3 0.0
19/05:30pm 19.9 18.7 9.5 51 5.7 N 6 9 3 5 1021.7 1021.1 0.0
19/05:00pm 20.3 18.4 6.6 41 7.2 NE 6 7 3 4 1021.7 1021.1 0.0
19/04:30pm 19.8 17.2 7.9 46 6.4 N 11 13 6 7 1021.8 1021.2 0.0
19/04:00pm 20.8 17.5 6.4 39 7.5 N 13 17 7 9 1021.7 1021.1 0.0
19/03:30pm 20.3 16.0 3.5 33 8.3 N 15 19 8 10 1022.0 1021.4 0.0
19/03:00pm 20.4 18.1 7.4 43 6.9 NW 9 13 5 7 1022.5 1022.0 0.0
19/02:30pm 22.4 19.6 8.5 41 7.6 W 13 19 7 10 1022.5 1022.0 0.0
19/02:00pm 23.2 21.1 9.6 42 7.6 N 11 19 6 10 1022.8 1022.2 0.0
19/01:30pm 22.7 20.8 9.1 42 7.6 NNE 9 13 5 7 1023.2 1022.6 0.0
19/01:00pm 22.2 19.8 8.7 42 7.4 NNE 11 17 6 9 1023.3 1022.7 0.0
19/12:30pm 21.2 18.7 9.8 48 6.4 NE 13 19 7 10 1023.7 1023.2 0.0
19/12:00pm 21.1 18.7 7.0 40 7.4 E 9 13 5 7 1023.9 1023.4 0.0
19/11:30am 21.0 18.2 6.9 40 7.5 NE 11 17 6 9 1024.2 1023.6 0.0
19/11:00am 20.3 17.5 7.0 42 7.0 NE 11 17 6 9 1024.4 1023.8 0.0
19/10:30am 19.1 16.4 7.5 47 6.1 NE 11 15 6 8 1024.6 1024.0 0.0
19/10:00am 18.0 15.2 8.6 54 5.0 NNE 13 17 7 9 1024.4 1023.8 0.0
19/09:30am 17.3 13.5 7.4 52 5.2 NNE 17 20 9 11 1024.3 1023.7 0.0
19/09:00am 16.2 12.2 6.6 53 4.9 NE 17 20 9 11 1024.3 1023.7 0.0
19/08:30am 14.6 10.2 7.4 62 3.7 NNE 20 24 11 13 1024.1 1023.5 0.0
19/08:00am 14.5 10.0 6.8 60 3.9 NNE 20 28 11 15 1024.1 1023.5 0.0
19/07:30am 12.9 8.4 7.1 68 2.9 NNE 20 28 11 15 1024.1 1023.5 0.0
19/07:00am 11.8 7.3 6.3 69 2.7 N 19 24 10 13 1023.9 1023.4 0.0
19/06:30am 11.0 5.8 5.7 70 2.6 N 22 28 12 15 1023.5 1022.9 0.0
19/06:00am 10.7 6.0 5.9 72 2.3 N 20 26 11 14 1023.5 1022.9 0.0
19/05:30am 10.8 6.0 5.8 71 2.4 N 20 24 11 13 1023.3 1022.7 0.0
19/05:00am 10.8 6.3 6.0 72 2.3 N 19 24 10 13 1023.2 1022.6 0.0
19/04:30am 11.1 6.4 6.0 71 2.5 N 20 24 11 13 1023.5 1022.9 0.0
19/04:00am 11.1 7.5 5.2 67 2.8 NNE 13 17 7 9 1023.8 1023.3 0.0
19/03:30am 10.8 7.4 6.0 72 2.3 NNE 13 17 7 9 1023.8 1023.3 0.0
19/03:00am 11.7 7.7 6.6 71 2.5 N 17 20 9 11 1023.9 1023.4 0.0
19/02:30am 11.1 7.8 6.6 74 2.2 NNE 13 17 7 9 1024.2 1023.6 0.0
19/02:00am 10.6 7.7 6.4 75 2.0 N 11 13 6 7 1024.5 1023.9 0.0
19/01:30am 11.4 8.1 6.3 71 2.5 N 13 15 7 8 1024.8 1024.3 0.0
19/01:00am 10.6 8.1 6.6 76 2.0 NNE 9 13 5 7 1025.2 1024.7 0.0
19/12:30am 11.3 9.2 6.6 73 2.3 N 7 9 4 5 1025.4 1024.9 0.0
19/12:00am 12.3 10.3 6.4 67 2.9 NNE 6 7 3 4 1025.7 1025.1 0.0
 
Date/Time
EDT
Temp
°C
App
Temp
°C
Dew
Point
Rel
Hum
%
Delta-T
°C
Wind Press
QNH
hPa
Press
MSL
hPa
Rain
since 9 am
mm
Dir
 
Spd
km/h
Gust
km/h
Spd
kts
Gust
kts
18/11:30pm 12.4 11.6 6.7 68 2.8 CALM 0 0 0 0 1025.7 1025.1 0.0
18/11:00pm 12.4 10.3 6.5 67 2.9 WSW 7 9 4 5 1025.7 1025.1 0.0
18/10:30pm 13.4 11.0 7.0 65 3.2 N 9 11 5 6 1025.3 1024.8 0.0
18/10:00pm 14.2 11.3 6.3 59 3.9 NNW 11 15 6 8 1025.3 1024.8 0.0
18/09:30pm 12.5 10.4 6.5 67 3.0 N 7 13 4 7 1025.3 1024.8 0.0
18/09:00pm 11.4 8.3 7.3 76 2.0 NNE 13 19 7 10 1024.6 1024.0 0.0
18/08:30pm 11.8 9.5 7.5 75 2.2 NNE 9 13 5 7 1025.1 1024.6 0.0
18/08:00pm 13.4 12.8 7.6 68 3.0 CALM 0 0 0 0 1025.2 1024.7 0.0
18/07:30pm 14.9 14.4 7.9 63 3.6 CALM 0 0 0 0 1025.2 1024.7 0.0
18/07:00pm 17.0 16.1 5.9 48 5.6 CALM 0 0 0 0 1024.7 1024.1 0.0
18/06:30pm 17.1 15.6 6.6 50 5.4 E 4 7 2 4 1024.4 1023.8 0.0

Other Formats:

Comma delimited format used in spreadsheet applications
http://www.bom.gov.au/fwo/IDV60801/IDV60801.94913.axf

JavaScript Object Notation format (JSON) in row-major order
http://www.bom.gov.au/fwo/IDV60801/IDV60801.94913.json